createdAt,value
2023-03-29T00:00:35.989Z,101557.69
2023-03-29T00:05:41.193Z,101521.34
2023-03-29T00:10:42.908Z,101511.75
2023-03-29T00:15:44.579Z,101538.09
2023-03-29T00:20:46.277Z,101485.16
2023-03-29T00:25:47.976Z,101460.38
2023-03-29T00:30:54.872Z,101517.91
2023-03-29T00:36:11.315Z,101479.84
2023-03-29T00:41:12.976Z,101442.16
2023-03-29T00:46:15.436Z,101478.50
2023-03-29T00:51:19.860Z,101488.47
2023-03-29T01:02:02.800Z,101433.78
2023-03-29T01:07:30.918Z,101490.41
2023-03-29T01:12:39.245Z,101471.81
2023-03-29T01:24:28.179Z,101483.03
2023-03-29T01:29:46.171Z,101470.94
2023-03-29T01:35:00.183Z,101448.50
2023-03-29T01:40:02.127Z,101450.00
2023-03-29T01:45:20.268Z,101440.88
2023-03-29T01:50:54.305Z,101411.44
2023-03-29T01:56:49.232Z,101437.78
2023-03-29T02:07:17.434Z,101384.97
2023-03-29T02:12:19.744Z,101409.69
2023-03-29T02:17:23.696Z,101358.66
2023-03-29T02:22:40.211Z,101420.66
2023-03-29T02:27:42.216Z,101408.84
2023-03-29T02:32:55.967Z,101401.69
2023-03-29T02:38:17.132Z,101342.63
2023-03-29T02:43:20.777Z,101364.38
2023-03-29T02:48:27.033Z,101363.66
2023-03-29T02:53:43.320Z,101375.56
2023-03-29T02:58:44.938Z,101324.38
2023-03-29T03:03:47.985Z,101297.94
2023-03-29T03:08:50.024Z,101359.69
2023-03-29T03:13:52.591Z,101310.59
2023-03-29T03:18:55.728Z,101287.69
2023-03-29T03:24:22.156Z,101345.69
2023-03-29T03:29:25.101Z,101346.16
2023-03-29T03:34:27.741Z,101335.44
2023-03-29T03:39:32.649Z,101276.78
2023-03-29T03:44:34.351Z,101292.22
2023-03-29T03:49:35.939Z,101277.34
2023-03-29T03:54:38.126Z,101285.84
2023-03-29T03:59:39.739Z,101296.88
2023-03-29T04:04:47.728Z,101340.81
2023-03-29T04:09:49.667Z,101275.00
2023-03-29T04:15:03.855Z,101274.84
2023-03-29T04:20:15.202Z,101288.69
2023-03-29T04:25:17.406Z,101292.13
2023-03-29T04:30:19.138Z,101297.41
2023-03-29T04:35:20.780Z,101294.91
2023-03-29T04:40:22.389Z,101253.47
2023-03-29T04:45:24.027Z,101241.63
2023-03-29T04:50:25.868Z,101240.94
2023-03-29T04:55:55.631Z,101298.53
2023-03-29T05:00:58.926Z,101255.19
2023-03-29T05:06:07.105Z,101262.81
2023-03-29T05:11:11.690Z,101268.25
2023-03-29T05:16:13.369Z,101259.25
2023-03-29T05:21:15.121Z,101276.56
2023-03-29T05:26:16.741Z,101267.91
2023-03-29T05:31:18.714Z,101303.56
2023-03-29T05:36:21.459Z,101262.75
2023-03-29T05:41:25.803Z,101258.56
2023-03-29T05:46:27.468Z,101280.94
2023-03-29T05:51:29.140Z,101263.47
2023-03-29T05:56:42.066Z,101306.59
2023-03-29T06:02:05.497Z,101316.06
2023-03-29T06:07:07.237Z,101241.03
2023-03-29T06:12:34.521Z,101256.59
2023-03-29T06:17:40.818Z,101320.66
2023-03-29T06:22:43.264Z,101253.94
2023-03-29T06:27:46.776Z,101316.69
2023-03-29T06:32:50.611Z,101304.94
2023-03-29T06:38:13.894Z,101298.78
2023-03-29T06:43:15.534Z,101266.69
2023-03-29T06:48:17.360Z,101275.31
2023-03-29T06:53:19.235Z,101325.63
2023-03-29T06:58:20.904Z,101283.56
2023-03-29T07:03:23.694Z,101323.56
2023-03-29T07:13:56.409Z,101306.56
2023-03-29T07:18:58.124Z,101330.34
2023-03-29T07:23:59.672Z,101344.41
2023-03-29T07:29:01.439Z,101328.56
2023-03-29T07:34:17.828Z,101326.13
2023-03-29T07:39:20.474Z,101290.06
2023-03-29T07:44:31.329Z,101341.75
2023-03-29T07:49:34.462Z,101283.47
2023-03-29T07:54:36.020Z,101262.03
2023-03-29T07:59:37.775Z,101311.88
2023-03-29T08:04:49.003Z,101295.56
2023-03-29T08:09:50.941Z,101297.84
2023-03-29T08:14:52.524Z,101303.00
2023-03-29T08:20:02.604Z,101318.75
2023-03-29T08:25:04.836Z,101274.06
2023-03-29T08:30:09.539Z,101332.59
2023-03-29T08:35:11.328Z,101304.75
2023-03-29T08:40:21.586Z,101305.06
2023-03-29T08:45:35.575Z,101299.81
2023-03-29T08:50:53.008Z,101290.59
2023-03-29T08:55:59.291Z,101307.69
2023-03-29T09:01:04.335Z,101308.03
2023-03-29T09:06:20.151Z,101321.88
2023-03-29T09:11:27.069Z,101335.53
2023-03-29T09:17:05.581Z,101348.34
2023-03-29T09:22:17.490Z,101334.00
2023-03-29T09:27:37.963Z,101313.63
2023-03-29T09:32:49.878Z,101274.88
2023-03-29T09:38:17.610Z,101275.13
2023-03-29T09:49:39.466Z,101284.16
2023-03-29T10:00:22.412Z,101295.63
2023-03-29T10:05:26.436Z,101334.16
2023-03-29T10:10:33.540Z,101306.78
2023-03-29T10:15:36.329Z,101332.06
2023-03-29T10:20:40.078Z,101327.69
2023-03-29T10:25:47.845Z,101320.72
2023-03-29T10:30:57.683Z,101318.09
2023-03-29T10:36:06.994Z,101251.81
2023-03-29T10:41:13.296Z,101267.06
2023-03-29T10:46:41.552Z,101255.56
2023-03-29T10:51:48.113Z,101293.09
2023-03-29T10:56:55.718Z,101261.69
2023-03-29T11:02:14.250Z,101304.75
2023-03-29T11:07:26.368Z,101296.88
2023-03-29T11:12:49.432Z,101292.25
2023-03-29T11:18:30.387Z,101293.81
2023-03-29T11:24:05.335Z,101247.75
2023-03-29T11:29:35.573Z,101268.94
2023-03-29T11:35:10.098Z,101257.16
2023-03-29T11:40:23.360Z,101292.19
2023-03-29T11:45:45.562Z,101237.56
2023-03-29T11:50:57.808Z,101219.72
2023-03-29T12:02:27.509Z,101258.59
2023-03-29T12:07:43.260Z,101243.56
2023-03-29T12:13:10.719Z,101275.94
2023-03-29T12:18:24.146Z,101268.91
2023-03-29T12:23:29.541Z,101243.41
2023-03-29T12:29:11.086Z,101257.06
2023-03-29T12:34:49.794Z,101254.47
2023-03-29T12:40:10.155Z,101238.22
2023-03-29T12:45:22.090Z,101248.31
2023-03-29T12:50:29.929Z,101236.53
2023-03-29T12:55:52.279Z,101214.78
2023-03-29T13:01:08.912Z,101220.13
2023-03-29T13:06:12.569Z,101208.28
2023-03-29T13:11:37.713Z,101169.47
2023-03-29T13:16:40.590Z,101190.00
2023-03-29T13:21:51.059Z,101176.34
2023-03-29T13:27:25.459Z,101179.41
2023-03-29T13:32:38.292Z,101178.06
2023-03-29T13:38:05.216Z,101166.09
2023-03-29T13:43:33.688Z,101169.31
2023-03-29T13:48:37.610Z,101158.53
2023-03-29T13:53:57.891Z,101128.63
2023-03-29T13:59:15.540Z,101137.31
2023-03-29T14:04:45.016Z,101178.03
2023-03-29T14:10:36.110Z,101157.88
2023-03-29T14:16:02.981Z,101166.25
2023-03-29T14:21:05.727Z,101162.13
2023-03-29T14:26:22.228Z,101135.28
2023-03-29T14:31:44.459Z,101169.81
2023-03-29T14:36:49.989Z,101118.19
2023-03-29T14:42:16.365Z,101083.63
2023-03-29T14:47:52.908Z,101108.25
2023-03-29T14:53:01.862Z,101128.38
2023-03-29T14:58:04.383Z,101121.72
2023-03-29T15:03:14.024Z,101119.66
2023-03-29T15:08:33.961Z,101114.69
2023-03-29T15:13:41.633Z,101094.69
2023-03-29T15:18:45.850Z,101099.63
2023-03-29T15:23:55.761Z,101093.44
2023-03-29T15:29:17.011Z,101090.03
2023-03-29T15:34:32.126Z,101068.69
2023-03-29T15:39:36.971Z,101037.09
2023-03-29T15:44:42.207Z,101039.31
2023-03-29T15:49:49.642Z,101023.97
2023-03-29T15:54:51.502Z,101013.91
2023-03-29T15:59:53.120Z,101017.63
2023-03-29T16:04:58.958Z,101011.44
2023-03-29T16:10:04.124Z,100989.25
2023-03-29T16:15:26.440Z,100990.47
2023-03-29T16:20:28.043Z,100976.31
2023-03-29T16:25:31.281Z,100952.66
2023-03-29T16:30:33.403Z,100965.47
2023-03-29T16:35:38.514Z,100980.19
2023-03-29T16:40:40.118Z,100979.09
2023-03-29T16:45:41.997Z,100949.06
2023-03-29T16:50:52.468Z,100936.75
2023-03-29T16:55:54.669Z,100921.06
2023-03-29T17:00:57.123Z,100911.84
2023-03-29T17:05:59.247Z,100901.28
2023-03-29T17:11:01.448Z,100925.69
2023-03-29T17:16:03.372Z,100892.75
2023-03-29T17:21:05.844Z,100906.03
2023-03-29T17:26:07.673Z,100871.91
2023-03-29T17:31:10.968Z,100888.81
2023-03-29T17:36:12.605Z,100883.88
2023-03-29T17:41:14.375Z,100875.34
2023-03-29T17:46:16.903Z,100867.50
2023-03-29T17:51:21.896Z,100851.44
2023-03-29T17:56:23.707Z,100859.13
2023-03-29T18:01:25.502Z,100849.06
2023-03-29T18:06:27.379Z,100843.94
2023-03-29T18:11:29.408Z,100831.50
2023-03-29T18:16:31.390Z,100828.59
2023-03-29T18:21:33.023Z,100825.34
2023-03-29T18:26:34.611Z,100817.81
2023-03-29T18:31:36.307Z,100821.44
2023-03-29T18:36:37.916Z,100813.06
2023-03-29T18:41:39.494Z,100826.91
2023-03-29T18:46:41.354Z,100820.78
2023-03-29T18:51:42.940Z,100825.38
2023-03-29T19:02:33.553Z,100802.19
2023-03-29T19:07:35.940Z,100801.00
2023-03-29T19:12:37.638Z,100765.53
2023-03-29T19:17:44.862Z,100798.44
2023-03-29T19:22:46.652Z,100797.06
2023-03-29T19:27:48.185Z,100792.28
2023-03-29T19:32:50.235Z,100780.53
2023-03-29T19:37:51.906Z,100751.69
2023-03-29T19:42:53.465Z,100761.25
2023-03-29T19:48:02.998Z,100749.69
2023-03-29T19:53:05.186Z,100723.06
2023-03-29T19:58:07.192Z,100731.56
2023-03-29T20:03:13.970Z,100696.13
2023-03-29T20:08:15.776Z,100706.19
2023-03-29T20:13:24.462Z,100635.25
2023-03-29T20:18:33.429Z,100681.97
2023-03-29T20:23:35.581Z,100673.06
2023-03-29T20:28:39.903Z,100650.59
2023-03-29T20:33:42.249Z,100639.34
2023-03-29T20:38:44.797Z,100650.91
2023-03-29T20:43:46.388Z,100617.69
2023-03-29T20:48:54.361Z,100579.53
2023-03-29T20:54:07.746Z,100597.03
2023-03-29T20:59:12.227Z,100600.94
2023-03-29T21:04:13.924Z,100557.63
2023-03-29T21:09:17.227Z,100564.63
2023-03-29T21:14:22.483Z,100555.22
2023-03-29T21:19:24.701Z,100561.69
2023-03-29T21:24:26.239Z,100557.59
2023-03-29T21:29:28.018Z,100554.16
2023-03-29T21:34:29.619Z,100553.47
2023-03-29T21:39:31.455Z,100493.91
2023-03-29T21:44:34.327Z,100517.00
2023-03-29T21:49:36.304Z,100525.19
2023-03-29T21:54:37.903Z,100517.19
2023-03-29T21:59:39.478Z,100515.19
2023-03-29T22:04:41.408Z,100494.41
2023-03-29T22:09:43.131Z,100500.84
2023-03-29T22:14:44.734Z,100508.69
2023-03-29T22:19:47.506Z,100493.88
2023-03-29T22:24:53.017Z,100497.59
2023-03-29T22:35:38.314Z,100441.75
2023-03-29T22:40:40.829Z,100482.53
2023-03-29T22:45:42.834Z,100464.44
2023-03-29T22:50:46.766Z,100477.13
2023-03-29T22:55:48.345Z,100456.94
2023-03-29T23:00:50.432Z,100432.88
2023-03-29T23:05:57.740Z,100420.25
2023-03-29T23:10:59.931Z,100435.16
2023-03-29T23:16:02.332Z,100422.84
2023-03-29T23:21:05.877Z,100419.13
2023-03-29T23:26:11.885Z,100419.59
2023-03-29T23:31:18.370Z,100402.91
2023-03-29T23:36:22.714Z,100397.47
2023-03-29T23:41:28.100Z,100394.66
2023-03-29T23:46:30.100Z,100395.03
2023-03-29T23:51:31.824Z,100390.88
2023-03-29T23:56:33.508Z,100347.50
